Time;durP1;ratioP1;P1;durP2;ratioP2;P2;SDS_P1;SDS_P2;PMS_P1;PMS_P2;Temp;Humidity;BMP_temperature;BMP_pressure;BME280_temperature;BME280_humidity;BME280_pressure;Samples;Min_cycle;Max_cycle;Signal;HPM_P1;HPM_P2
2022/03/20 00:01:32;;;;;;;11.23;6.47;;;;;;;2.38;34.28;102147.38;4517340;31;34305;-70
2022/03/20 00:04:00;;;;;;;11.18;6.35;;;;;;;2.70;32.76;102151.66;4517332;31;34825;-70
2022/03/20 00:06:27;;;;;;;11.15;5.87;;;;;;;2.74;32.74;102145.88;4517139;31;34374;-70
2022/03/20 00:08:55;;;;;;;10.65;6.07;;;;;;;3.22;31.30;102139.72;4517576;31;33761;-69
2022/03/20 00:11:23;;;;;;;10.30;6.10;;;;;;;3.25;30.89;102139.44;4517323;31;35062;-70
2022/03/20 00:13:50;;;;;;;10.85;6.37;;;;;;;3.13;30.87;102134.34;4516866;31;34115;-69
2022/03/20 00:16:18;;;;;;;10.48;5.95;;;;;;;3.52;30.49;102137.88;4517251;31;33679;-70
2022/03/20 00:18:45;;;;;;;10.68;6.35;;;;;;;3.37;30.80;102142.81;4517352;31;33744;-70
2022/03/20 00:21:13;;;;;;;11.48;6.10;;;;;;;3.49;30.82;102141.66;4517361;31;34180;-69
2022/03/20 00:23:43;;;;;;;9.50;6.18;;;;;;;3.45;30.62;102134.03;4517392;31;33958;-69
2022/03/20 00:26:10;;;;;;;12.10;6.40;;;;;;;3.93;29.96;102133.09;4516069;31;34026;-69
2022/03/20 00:28:38;;;;;;;12.18;5.93;;;;;;;3.38;30.87;102135.63;4515986;31;34182;-69
2022/03/20 00:31:05;;;;;;;10.38;5.97;;;;;;;3.34;31.24;102137.72;4517206;31;35052;-70
2022/03/20 00:33:33;;;;;;;11.40;6.20;;;;;;;3.34;31.21;102140.41;4517123;31;33926;-69
2022/03/20 00:36:00;;;;;;;11.15;6.78;;;;;;;3.27;31.42;102136.59;4517223;31;33254;-69
2022/03/20 00:38:27;;;;;;;11.00;6.53;;;;;;;3.10;31.75;102135.47;4516990;31;33970;-70
2022/03/20 00:40:55;;;;;;;11.12;6.37;;;;;;;3.34;31.29;102137.72;4516917;31;35079;-69
2022/03/20 00:43:22;;;;;;;10.82;6.78;;;;;;;3.46;31.20;102120.50;4517129;31;33041;-69
2022/03/20 00:45:50;;;;;;;13.00;7.12;;;;;;;3.23;31.43;102130.66;4517089;31;34338;-69
2022/03/20 00:48:23;;;;;;;11.50;7.10;;;;;;;3.46;31.01;102130.38;4516755;31;33780;-70
2022/03/20 00:50:50;;;;;;;11.90;6.32;;;;;;;2.86;32.15;102139.41;4517055;31;34057;-70
2022/03/20 00:53:17;;;;;;;11.18;6.75;;;;;;;2.81;32.26;102144.34;4516748;31;34051;-69
2022/03/20 00:55:45;;;;;;;11.80;6.78;;;;;;;2.99;32.36;102132.94;4516669;31;33469;-70
2022/03/20 00:58:12;;;;;;;12.07;6.97;;;;;;;2.83;32.55;102133.47;4516734;31;33978;-71
2022/03/20 01:00:40;;;;;;;10.82;6.60;;;;;;;2.81;32.45;102139.00;4516809;31;34918;-70
2022/03/20 01:03:07;;;;;;;13.15;6.03;;;;;;;3.20;31.83;102138.19;4516515;31;34107;-70
2022/03/20 01:05:35;;;;;;;15.65;7.05;;;;;;;3.14;32.07;102130.69;4516817;31;33953;-70
2022/03/20 01:08:03;;;;;;;11.02;6.40;;;;;;;3.29;31.83;102130.09;4510290;31;33837;-70
2022/03/20 01:10:35;;;;;;;11.07;6.62;;;;;;;2.97;32.17;102121.50;4516642;31;34138;-70
2022/03/20 01:13:02;;;;;;;13.48;6.25;;;;;;;2.76;32.65;102116.25;4516632;31;33627;-70
2022/03/20 01:15:31;;;;;;;13.98;6.78;;;;;;;3.01;32.44;102122.91;4516633;31;33153;-70
2022/03/20 01:17:59;;;;;;;0.80;0.80;;;;;;;3.04;32.27;102136.03;4516260;31;34902;-70
2022/03/20 01:20:26;;;;;;;0.70;0.70;;;;;;;2.94;32.51;102128.00;4516522;31;34316;-70
2022/03/20 01:22:54;;;;;;;0.85;0.85;;;;;;;2.81;32.80;102133.62;4516570;31;34097;-69
2022/03/20 01:25:22;;;;;;;10.93;6.87;;;;;;;2.91;32.60;102133.62;4516282;31;33445;-69
2022/03/20 01:27:49;;;;;;;11.07;6.70;;;;;;;2.85;32.96;102137.72;4516182;31;33805;-69
2022/03/20 01:30:16;;;;;;;10.55;6.40;;;;;;;2.97;33.02;102143.81;4516389;31;34002;-69
2022/03/20 01:32:44;;;;;;;11.75;6.82;;;;;;;3.20;32.43;102143.53;4516160;31;33939;-69
2022/03/20 01:35:11;;;;;;;0.70;0.70;;;;;;;2.65;33.17;102139.50;4516504;31;33527;-70
2022/03/20 01:37:42;;;;;;;12.43;6.47;;;;;;;2.61;33.63;102134.56;4516339;31;34700;-70
2022/03/20 01:40:10;;;;;;;10.13;8.63;;;;;;;2.83;33.04;102152.25;4516631;31;35009;-70
2022/03/20 01:42:40;;;;;;;0.70;0.70;;;;;;;2.78;33.40;102152.66;4518387;31;33707;-70
2022/03/20 01:45:20;;;;;;;12.02;6.85;;;;;;;2.62;33.64;102157.72;4518418;31;34162;-70
2022/03/20 01:47:49;;;;;;;12.75;7.43;;;;;;;2.96;32.98;102162.69;4518251;31;33899;-69
2022/03/20 01:50:19;;;;;;;14.15;7.25;;;;;;;2.66;33.54;102160.00;4518318;31;33693;-69
2022/03/20 01:52:48;;;;;;;14.65;7.53;;;;;;;2.57;33.81;102162.63;4518316;31;33953;-70
2022/03/20 01:55:17;;;;;;;12.55;7.07;;;;;;;2.60;33.65;102157.00;4518271;31;34360;-69
2022/03/20 01:57:45;;;;;;;12.23;7.15;;;;;;;2.69;33.72;102177.62;4518295;31;34600;-70
2022/03/20 02:00:16;;;;;;;11.20;7.05;;;;;;;2.74;33.58;102175.38;4518115;31;34743;-70
2022/03/20 02:02:44;;;;;;;11.45;6.72;;;;;;;2.24;34.38;102168.16;4518302;31;33785;-70
2022/03/20 02:05:13;;;;;;;11.80;6.97;;;;;;;2.26;34.51;102176.91;4517976;31;34295;-70
2022/03/20 02:07:40;;;;;;;11.27;6.53;;;;;;;2.39;34.50;102175.84;4518532;31;34008;-70
2022/03/20 02:10:08;;;;;;;10.35;6.72;;;;;;;2.22;34.67;102178.16;4518208;31;34672;-70
2022/03/20 02:12:37;;;;;;;11.20;6.05;;;;;;;2.30;34.64;102177.50;4517876;31;33875;-71
2022/03/20 02:15:06;;;;;;;9.57;6.03;;;;;;;2.71;33.96;102181.00;4518298;31;33746;-70
2022/03/20 02:17:34;;;;;;;6.85;4.57;;;;;;;2.45;34.42;102175.28;4517875;31;34028;-70
2022/03/20 02:20:05;;;;;;;10.98;6.43;;;;;;;2.30;34.93;102182.00;4517907;31;35057;-70
2022/03/20 02:22:32;;;;;;;13.05;7.18;;;;;;;2.08;35.42;102177.69;4518166;31;34826;-70
2022/03/20 02:25:05;;;;;;;13.25;6.18;;;;;;;2.19;35.41;102189.16;4518319;31;33520;-69
2022/03/20 02:27:34;;;;;;;12.40;6.95;;;;;;;1.98;35.69;102185.66;4518202;31;33629;-70
2022/03/20 02:30:11;;;;;;;11.95;7.15;;;;;;;2.21;35.09;102181.00;4517968;31;34146;-69
2022/03/20 02:32:43;;;;;;;11.07;6.82;;;;;;;1.89;35.87;102173.91;4517777;31;34007;-70
2022/03/20 02:35:14;;;;;;;10.68;6.25;;;;;;;1.73;36.56;102174.38;4517950;31;34362;-69
2022/03/20 02:37:49;;;;;;;11.90;7.22;;;;;;;1.83;36.08;102180.62;4517878;31;33817;-70
2022/03/20 02:40:19;;;;;;;11.82;7.18;;;;;;;1.58;36.67;102179.22;4517816;31;34227;-70
2022/03/20 02:42:51;;;;;;;13.68;6.90;;;;;;;1.47;36.91;102176.59;4517891;31;33941;-70
2022/03/20 02:45:21;;;;;;;13.23;7.28;;;;;;;1.51;37.26;102183.41;4517797;31;33602;-69
2022/03/20 02:47:50;;;;;;;12.60;6.60;;;;;;;1.39;37.45;102177.25;4517986;31;33933;-70
2022/03/20 02:50:27;;;;;;;12.63;6.80;;;;;;;1.40;37.58;102183.44;4516641;31;34922;-69
2022/03/20 02:52:58;;;;;;;1.98;1.35;;;;;;;1.43;37.37;102181.34;4517245;31;34763;-70
2022/03/20 02:55:27;;;;;;;1.95;0.80;;;;;;;1.08;38.36;102181.63;4517704;31;33607;-70
2022/03/20 02:57:57;;;;;;;11.70;7.40;;;;;;;1.12;38.47;102187.56;4517684;31;33627;-69
2022/03/20 03:00:26;;;;;;;13.65;7.30;;;;;;;1.04;38.66;102196.22;4517625;31;34514;-69
2022/03/20 03:02:56;;;;;;;12.70;7.07;;;;;;;1.30;38.27;102195.91;4517808;31;33867;-70
2022/03/20 03:05:25;;;;;;;12.07;7.32;;;;;;;1.57;37.40;102203.41;4517633;31;34161;-69
2022/03/20 03:11:01;;;;;;;1.80;1.65;;;;;;;0.89;39.54;102208.19;4516651;31;35291;-70
2022/03/20 03:13:30;;;;;;;14.25;7.03;;;;;;;1.33;38.35;102209.84;4516671;31;34823;-69
2022/03/20 03:16:00;;;;;;;3.62;2.67;;;;;;;1.20;38.93;102215.34;4517925;31;33303;-69
2022/03/20 03:18:28;;;;;;;12.77;6.87;;;;;;;1.06;39.19;102217.47;4517652;31;34019;-69
2022/03/20 03:20:56;;;;;;;14.75;7.50;;;;;;;1.31;38.22;102216.31;4517466;31;34179;-69
2022/03/20 03:23:27;;;;;;;1.98;1.85;;;;;;;0.84;39.46;102216.53;4517430;31;34635;-69
2022/03/20 03:25:55;;;;;;;12.45;7.60;;;;;;;0.69;39.95;102232.03;4517656;31;34249;-69
2022/03/20 03:28:28;;;;;;;3.83;2.37;;;;;;;1.39;38.45;102236.09;4517681;31;33915;-68
2022/03/20 03:30:55;;;;;;;13.52;8.20;;;;;;;1.18;39.10;102237.88;4517386;31;34077;-69
2022/03/20 03:33:24;;;;;;;14.98;7.82;;;;;;;1.20;39.20;102241.25;4517435;31;34839;-69
2022/03/20 03:35:53;;;;;;;13.25;7.62;;;;;;;0.97;39.81;102241.31;4517248;31;34381;-69
2022/03/20 03:38:26;;;;;;;15.43;8.02;;;;;;;1.42;38.70;102253.69;4517506;31;33988;-69
2022/03/20 03:40:55;;;;;;;14.43;7.60;;;;;;;1.13;39.39;102248.09;4517738;31;35033;-71
2022/03/20 03:43:23;;;;;;;13.52;8.32;;;;;;;1.16;39.56;102255.84;4517620;31;33948;-71
2022/03/20 03:45:52;;;;;;;14.93;7.95;;;;;;;1.50;39.49;102267.31;4517637;31;34155;-71
2022/03/20 03:48:20;;;;;;;15.27;8.40;;;;;;;1.13;40.02;102259.63;4517278;31;33891;-71
2022/03/20 03:50:51;;;;;;;13.38;8.00;;;;;;;1.62;38.90;102258.25;4517273;31;34369;-70
2022/03/20 03:53:18;;;;;;;13.80;7.62;;;;;;;0.85;40.05;102266.38;4516599;31;33949;-70
2022/03/20 03:55:46;;;;;;;3.60;2.35;;;;;;;0.78;41.10;102276.69;4517497;31;33533;-71
2022/03/20 03:58:14;;;;;;;12.20;7.78;;;;;;;1.12;39.92;102263.25;4517490;31;34739;-71
2022/03/20 04:00:43;;;;;;;2.70;2.50;;;;;;;0.96;41.45;102273.53;4514258;31;33677;-71
2022/03/20 04:03:13;;;;;;;14.38;8.88;;;;;;;1.46;39.17;102275.72;4516254;31;33551;-69
2022/03/20 04:05:40;;;;;;;14.27;8.77;;;;;;;0.78;41.64;102275.84;4516848;31;34489;-71
2022/03/20 04:08:09;;;;;;;14.90;8.50;;;;;;;1.11;40.56;102288.31;4517191;31;33963;-70
2022/03/20 04:10:37;;;;;;;15.07;8.18;;;;;;;0.75;40.89;102281.44;4512906;31;33969;-71
2022/03/20 04:13:05;;;;;;;0.98;0.93;;;;;;;0.77;40.82;102287.50;4500748;31;33946;-70
2022/03/20 04:15:32;;;;;;;11.45;7.32;;;;;;;0.73;42.60;102289.56;4500279;31;33005;-71
2022/03/20 04:18:01;;;;;;;2.37;0.98;;;;;;;1.28;40.22;102288.78;4500974;31;33766;-70
2022/03/20 04:20:29;;;;;;;0.60;0.60;;;;;;;1.28;40.18;102296.81;4503292;31;35095;-69
2022/03/20 04:25:42;;;;;;;0.82;0.82;;;;;;;0.29;42.81;102299.25;4501314;31;34444;-71
2022/03/20 04:28:10;;;;;;;0.88;0.88;;;;;;;-0.04;43.95;102298.22;4501235;31;33370;-70
2022/03/20 04:30:37;;;;;;;19.52;10.85;;;;;;;0.20;43.43;102295.47;4502707;31;34261;-70
2022/03/20 04:33:05;;;;;;;1.45;1.35;;;;;;;0.17;43.63;102310.88;4500526;31;33771;-67
2022/03/20 04:35:33;;;;;;;18.60;10.70;;;;;;;0.34;44.22;102304.22;4500957;31;33516;-71
2022/03/20 04:38:04;;;;;;;1.75;1.10;;;;;;;-0.34;45.02;102329.88;4500938;31;34008;-70
2022/03/20 04:40:33;;;;;;;17.40;9.07;;;;;;;0.09;44.27;102316.81;4502996;31;35065;-71
2022/03/20 04:43:00;;;;;;;17.08;9.02;;;;;;;0.38;43.82;102314.56;4500328;31;34056;-69
2022/03/20 04:45:28;;;;;;;2.28;2.12;;;;;;;0.55;43.11;102326.59;4500385;31;33083;-71
2022/03/20 04:59:02;;;;;;;18.02;10.48;;;;;;;1.09;42.45;102334.87;4499805;31;33995;-68
2022/03/20 05:01:29;;;;;;;1.45;0.60;;;;;;;0.87;42.87;102349.94;4504506;31;34252;-68
2022/03/20 05:03:58;;;;;;;17.92;10.18;;;;;;;0.54;43.49;102346.28;4511827;31;33783;-72
2022/03/20 05:06:26;;;;;;;1.50;1.40;;;;;;;0.38;43.88;102349.28;4500171;31;34342;-72
2022/03/20 05:13:19;;;;;;;15.32;9.52;;;;;;;0.90;42.95;102351.53;4500058;31;33936;-70
2022/03/20 05:14:27;;;;;;;18.15;9.43;;;;;;;0.70;43.28;102353.09;4500055;31;33933;-70
2022/03/20 05:17:00;;;;;;;15.00;8.93;;;;;;;0.99;42.59;102348.97;4500439;31;33448;-69
2022/03/20 05:19:28;;;;;;;15.02;9.40;;;;;;;1.00;43.19;102358.69;4500895;31;33928;-72
2022/03/20 05:21:56;;;;;;;16.17;9.38;;;;;;;0.93;42.74;102359.28;4500686;31;34251;-69
2022/03/20 05:24:23;;;;;;;14.27;9.25;;;;;;;1.17;42.23;102365.37;4500429;31;33697;-73
2022/03/20 05:26:51;;;;;;;16.58;9.38;;;;;;;1.40;41.68;102370.69;4500818;31;33525;-69
2022/03/20 05:29:18;;;;;;;18.55;9.93;;;;;;;1.20;42.28;102372.28;4502302;31;34070;-65
2022/03/20 05:31:46;;;;;;;15.05;9.20;;;;;;;1.17;42.16;102378.75;4515837;31;33825;-66
2022/03/20 05:34:16;;;;;;;19.42;11.50;;;;;;;1.35;42.77;102387.09;4516103;31;33734;-67
2022/03/20 05:36:44;;;;;;;20.20;11.43;;;;;;;0.86;43.39;102382.97;4515786;31;33499;-68
2022/03/20 05:39:12;;;;;;;15.73;10.00;;;;;;;1.55;43.04;102384.62;4510813;31;33927;-68
2022/03/20 05:41:47;;;;;;;15.43;9.10;;;;;;;1.84;42.14;102374.22;4516447;31;34311;-68
2022/03/20 05:44:16;;;;;;;0.60;0.60;;;;;;;1.57;42.16;102390.72;4515966;31;34315;-69
2022/03/20 05:46:46;;;;;;;15.52;9.20;;;;;;;2.07;41.52;102393.72;4516367;31;33421;-68
2022/03/20 05:49:13;;;;;;;0.52;0.52;;;;;;;1.83;42.46;102394.78;4515812;31;34729;-67
2022/03/20 05:51:41;;;;;;;16.35;9.50;;;;;;;2.75;40.58;102390.69;4515202;31;34267;-67
2022/03/20 05:54:09;;;;;;;15.02;8.90;;;;;;;3.32;38.87;102397.28;4514605;31;33786;-67
2022/03/20 05:59:23;;;;;;;15.45;8.48;;;;;;;4.51;37.65;102404.38;4515944;31;33755;-68
2022/03/20 06:01:51;;;;;;;16.05;9.55;;;;;;;5.34;35.40;102399.13;4514318;31;34139;-68
2022/03/20 06:04:20;;;;;;;3.10;1.15;;;;;;;6.13;34.17;102386.91;4515404;31;34827;-68
2022/03/20 06:06:50;;;;;;;1.67;1.58;;;;;;;6.21;34.22;102399.59;4515551;31;33515;-69
2022/03/20 06:09:18;;;;;;;16.27;9.82;;;;;;;6.16;32.75;102393.81;4515676;31;33343;-66
2022/03/20 06:11:45;;;;;;;17.30;9.40;;;;;;;6.83;32.15;102412.22;4515592;31;34053;-66
2022/03/20 06:14:13;;;;;;;17.67;10.07;;;;;;;5.95;32.91;102407.59;4515559;31;33958;-66
2022/03/20 06:16:43;;;;;;;20.10;10.35;;;;;;;5.90;33.17;102423.34;4515466;31;34347;-67
2022/03/20 06:19:11;;;;;;;16.45;9.77;;;;;;;6.11;33.11;102421.25;4515487;31;34093;-68
2022/03/20 06:21:38;;;;;;;15.93;9.27;;;;;;;6.31;32.85;102426.47;4515299;31;34410;-67
2022/03/20 06:24:06;;;;;;;13.82;8.38;;;;;;;6.86;32.63;102425.38;4514987;31;33396;-67
2022/03/20 06:26:34;;;;;;;14.35;7.87;;;;;;;6.88;31.52;102420.69;4515271;31;33542;-66
2022/03/20 06:29:05;;;;;;;12.35;7.47;;;;;;;7.79;30.32;102437.13;4517500;31;34015;-67
2022/03/20 06:31:32;;;;;;;12.48;7.87;;;;;;;7.47;28.80;102434.31;4516841;31;34909;-67
2022/03/20 06:34:01;;;;;;;12.55;7.97;;;;;;;7.27;29.45;102433.72;4517739;31;33832;-67
2022/03/20 06:36:28;;;;;;;13.90;7.85;;;;;;;8.51;28.40;102431.22;4517909;31;33584;-69
2022/03/20 06:38:56;;;;;;;11.95;6.93;;;;;;;8.51;27.66;102435.75;4517305;31;33742;-67
2022/03/20 06:41:24;;;;;;;13.30;7.45;;;;;;;9.18;27.67;102438.22;4517595;31;33945;-67
2022/03/20 06:43:51;;;;;;;12.60;7.22;;;;;;;7.67;28.03;102445.72;4517749;31;34694;-67
2022/03/20 06:46:19;;;;;;;11.82;7.50;;;;;;;7.97;28.43;102450.53;4517587;31;33283;-67
2022/03/20 06:48:52;;;;;;;12.25;7.80;;;;;;;7.06;28.84;102445.78;4517323;31;33773;-66
2022/03/20 06:51:22;;;;;;;12.65;7.55;;;;;;;7.03;29.69;102456.87;4516911;31;34223;-71
2022/03/20 06:53:51;;;;;;;11.05;7.30;;;;;;;7.24;30.42;102459.19;4517148;31;35158;-67
2022/03/20 06:56:18;;;;;;;11.27;7.00;;;;;;;8.56;28.26;102460.47;4517606;31;33661;-65
2022/03/20 06:58:46;;;;;;;12.93;7.82;;;;;;;8.88;27.46;102467.72;4517578;31;34786;-68
2022/03/20 07:01:13;;;;;;;13.27;8.23;;;;;;;9.49;26.88;102462.66;4517639;31;33884;-67
2022/03/20 07:03:41;;;;;;;11.80;7.43;;;;;;;9.90;26.56;102465.19;4517672;31;34838;-69
2022/03/20 07:06:08;;;;;;;12.50;7.30;;;;;;;8.66;27.46;102461.16;4515240;31;34198;-68
2022/03/20 07:08:37;;;;;;;12.00;7.55;;;;;;;9.16;26.08;102470.91;4501895;31;32907;-65
2022/03/20 07:11:05;;;;;;;11.30;7.07;;;;;;;7.71;28.79;102472.25;4508849;31;34184;-67
2022/03/20 07:13:53;;;;;;;11.68;7.47;;;;;;;8.58;26.97;102472.81;4517707;31;34071;-66
2022/03/20 07:16:21;;;;;;;13.20;7.87;;;;;;;7.59;28.80;102473.56;4517470;31;34359;-68
2022/03/20 07:18:49;;;;;;;10.88;7.22;;;;;;;8.93;26.78;102483.47;4517234;31;34793;-70
2022/03/20 07:21:19;;;;;;;10.82;7.07;;;;;;;10.20;25.91;102487.06;4516746;31;34237;-68
2022/03/20 07:23:47;;;;;;;12.10;7.93;;;;;;;10.34;26.20;102491.75;4517775;31;34001;-68
2022/03/20 07:31:48;;;;;;;11.75;7.00;;;;;;;10.11;25.14;102496.25;4517352;31;34146;-68
2022/03/20 07:34:16;;;;;;;10.77;6.78;;;;;;;9.41;26.39;102496.03;4517041;31;35151;-68
2022/03/20 07:36:43;;;;;;;12.68;7.57;;;;;;;9.76;26.36;102499.34;4517082;31;33259;-70
2022/03/20 07:39:11;;;;;;;13.77;7.62;;;;;;;9.04;26.21;102493.94;4516891;31;33801;-71
2022/03/20 07:41:40;;;;;;;12.55;7.15;;;;;;;8.77;26.88;102497.84;4515769;31;35314;-70
2022/03/20 07:44:08;;;;;;;13.50;7.72;;;;;;;7.88;28.86;102489.34;4517072;31;34891;-70
2022/03/20 07:46:36;;;;;;;13.00;8.93;;;;;;;8.66;27.64;102496.34;4515114;31;33674;-70
2022/03/20 07:49:04;;;;;;;11.85;7.30;;;;;;;8.61;28.28;102487.84;4514316;31;34397;-70
2022/03/20 07:51:32;;;;;;;12.85;7.75;;;;;;;8.62;28.02;102494.97;4515905;31;35081;-69
2022/03/20 07:54:00;;;;;;;12.20;7.80;;;;;;;9.89;26.20;102484.34;4514504;31;34763;-69
2022/03/20 07:56:34;;;;;;;11.93;7.60;;;;;;;9.60;26.18;102489.38;4510647;31;34070;-70
2022/03/20 07:59:05;;;;;;;12.23;7.30;;;;;;;9.50;26.31;102499.56;4517072;31;33859;-67
2022/03/20 08:01:33;;;;;;;11.77;7.37;;;;;;;9.56;26.54;102489.91;4515618;31;34165;-69
2022/03/20 08:04:02;;;;;;;10.93;7.00;;;;;;;8.55;27.97;102499.34;4514160;31;34424;-71
2022/03/20 08:06:30;;;;;;;12.20;7.57;;;;;;;8.51;27.88;102495.28;4506304;31;33168;-71
2022/03/20 08:08:59;;;;;;;12.00;7.60;;;;;;;9.09;26.96;102493.41;4498602;31;35147;-70
2022/03/20 08:11:27;;;;;;;13.40;7.40;;;;;;;8.77;27.85;102495.16;4514455;31;34126;-71
2022/03/20 08:13:55;;;;;;;11.57;7.20;;;;;;;8.16;28.21;102494.50;4510334;31;33801;-72
2022/03/20 08:16:25;;;;;;;12.98;7.32;;;;;;;8.48;27.78;102493.75;4515551;31;33682;-71
2022/03/20 08:18:56;;;;;;;13.52;7.30;;;;;;;7.97;28.33;102498.38;4515564;31;33668;-70
2022/03/20 08:21:24;;;;;;;13.70;8.57;;;;;;;7.65;29.21;102490.97;4515206;31;35005;-70
2022/03/20 08:23:53;;;;;;;11.80;7.22;;;;;;;8.60;28.20;102488.88;4515620;31;34004;-70
2022/03/20 08:26:20;;;;;;;13.35;7.85;;;;;;;8.26;28.04;102486.28;4513948;31;33169;-70
2022/03/20 08:28:48;;;;;;;12.45;7.12;;;;;;;8.16;27.93;102484.56;4515281;31;33941;-68
2022/03/20 08:31:15;;;;;;;12.27;7.30;;;;;;;9.09;27.57;102486.12;4515767;31;34531;-66
2022/03/20 08:33:43;;;;;;;9.60;6.35;;;;;;;9.17;27.07;102488.81;4515429;31;34835;-68
2022/03/20 08:36:13;;;;;;;11.40;6.75;;;;;;;9.43;25.80;102474.19;4515229;31;34059;-66
2022/03/20 08:38:41;;;;;;;10.30;6.57;;;;;;;8.00;27.31;102479.94;4515518;31;34127;-68
2022/03/20 08:41:09;;;;;;;10.25;6.55;;;;;;;8.77;27.30;102478.91;4513971;31;33840;-65
2022/03/20 08:43:37;;;;;;;10.45;6.12;;;;;;;8.51;27.22;102479.91;4512569;31;33712;-66
2022/03/20 08:46:04;;;;;;;11.65;6.78;;;;;;;8.67;27.20;102489.88;4513163;31;33607;-69
2022/03/20 08:48:32;;;;;;;9.02;5.70;;;;;;;8.55;27.05;102491.22;4514680;31;34682;-67
2022/03/20 08:50:59;;;;;;;9.25;5.90;;;;;;;9.24;26.19;102483.56;4514065;31;34930;-70
2022/03/20 08:53:27;;;;;;;9.43;6.07;;;;;;;8.59;26.04;102488.00;4515647;31;33999;-67
2022/03/20 08:55:55;;;;;;;10.63;7.28;;;;;;;9.08;25.86;102487.16;4513527;31;34498;-70
2022/03/20 08:58:22;;;;;;;11.23;6.22;;;;;;;8.02;27.05;102486.03;4507478;31;34086;-69
2022/03/20 09:00:49;;;;;;;9.43;5.55;;;;;;;8.30;27.92;102482.22;4511862;31;33829;-69
2022/03/20 09:03:17;;;;;;;11.40;6.28;;;;;;;8.18;27.02;102487.91;4513146;31;33802;-70
2022/03/20 09:05:45;;;;;;;9.68;6.25;;;;;;;8.98;26.43;102481.91;4511106;31;33514;-70
2022/03/20 09:08:12;;;;;;;10.55;6.25;;;;;;;8.60;26.27;102480.75;4506821;31;34022;-69
2022/03/20 09:10:41;;;;;;;10.05;5.97;;;;;;;8.33;28.00;102481.88;4504872;31;33968;-66
2022/03/20 09:13:08;;;;;;;9.13;5.68;;;;;;;7.35;28.21;102483.22;4510890;31;33826;-71
2022/03/20 09:15:35;;;;;;;9.73;5.87;;;;;;;8.17;27.29;102482.69;4514020;31;34307;-69
2022/03/20 09:20:49;;;;;;;8.60;5.60;;;;;;;7.71;28.70;102474.09;4511338;31;33988;-71
2022/03/20 09:23:17;;;;;;;9.40;6.47;;;;;;;8.45;27.10;102480.59;4513738;31;33810;-69
2022/03/20 09:25:44;;;;;;;8.43;5.75;;;;;;;8.74;27.49;102469.25;4511240;31;33511;-69
2022/03/20 09:28:12;;;;;;;8.35;5.40;;;;;;;9.22;25.96;102470.22;4513613;31;33923;-68
2022/03/20 09:30:41;;;;;;;12.55;5.60;;;;;;;9.33;25.52;102458.16;4507489;31;33831;-69
2022/03/20 09:33:09;;;;;;;8.32;5.55;;;;;;;9.19;26.03;102462.41;4515372;31;34079;-68
2022/03/20 09:35:38;;;;;;;9.00;5.75;;;;;;;10.14;26.09;102447.94;4511133;31;33383;-74
2022/03/20 09:38:07;;;;;;;8.85;5.62;;;;;;;9.62;25.33;102457.53;4506188;31;32648;-68
2022/03/20 09:40:36;;;;;;;8.43;5.40;;;;;;;9.14;25.23;102453.97;4514425;31;33704;-69
2022/03/20 09:43:05;;;;;;;8.52;5.82;;;;;;;8.21;26.42;102459.72;4510717;31;34064;-68
2022/03/20 09:45:33;;;;;;;9.27;5.55;;;;;;;8.62;26.21;102449.81;4515373;31;34104;-68
2022/03/20 09:48:02;;;;;;;7.60;5.07;;;;;;;9.34;25.69;102454.41;4514425;31;33808;-69
2022/03/20 09:50:30;;;;;;;8.30;5.30;;;;;;;8.92;25.20;102465.50;4503617;31;35137;-68
2022/03/20 09:52:58;;;;;;;6.93;4.72;;;;;;;9.45;25.02;102459.44;4507344;31;34027;-68
2022/03/20 09:55:26;;;;;;;8.98;5.37;;;;;;;9.09;26.31;102463.63;4509064;31;33548;-68
2022/03/20 09:57:57;;;;;;;7.95;5.00;;;;;;;9.75;24.72;102462.38;4509536;31;34852;-69
2022/03/20 10:00:26;;;;;;;9.05;5.55;;;;;;;9.02;25.71;102461.59;4514656;31;33766;-69
2022/03/20 10:02:53;;;;;;;8.07;5.53;;;;;;;9.92;25.14;102446.03;4516145;31;33965;-68
2022/03/20 10:05:23;;;;;;;10.27;5.22;;;;;;;9.99;24.63;102447.84;4502595;31;33602;-68
2022/03/20 10:07:50;;;;;;;7.93;5.32;;;;;;;9.72;25.04;102443.78;4513840;31;34144;-68
2022/03/20 10:10:28;;;;;;;8.52;5.62;;;;;;;10.06;24.66;102454.28;4514352;31;34437;-68
2022/03/20 10:12:58;;;;;;;7.80;5.60;;;;;;;9.38;25.13;102447.63;4516984;31;34868;-67
2022/03/20 10:15:33;;;;;;;10.57;5.90;;;;;;;9.91;24.36;102433.50;4505025;31;33717;-68
2022/03/20 10:18:11;;;;;;;9.10;5.43;;;;;;;10.17;24.98;102436.72;4515180;31;33958;-68
2022/03/20 10:20:44;;;;;;;7.85;5.32;;;;;;;10.44;23.67;102434.53;4517106;31;34075;-68
2022/03/20 10:23:33;;;;;;;10.07;5.43;;;;;;;9.55;24.58;102434.03;4516362;31;33756;-69
2022/03/20 10:26:19;;;;;;;8.57;5.45;;;;;;;10.61;23.74;102440.66;4512517;31;33536;-69
2022/03/20 10:28:49;;;;;;;8.13;5.40;;;;;;;10.34;24.30;102436.63;4514142;31;34070;-68
2022/03/20 10:31:22;;;;;;;10.18;5.28;;;;;;;9.90;24.38;102448.94;4509872;31;35141;-69
2022/03/20 10:34:00;;;;;;;12.32;5.57;;;;;;;10.19;24.78;102439.25;4516269;31;34538;-69
2022/03/20 10:36:29;;;;;;;8.30;5.30;;;;;;;9.41;26.10;102435.59;4513884;31;33542;-68
2022/03/20 10:38:56;;;;;;;8.05;5.43;;;;;;;10.23;24.82;102424.28;4516843;31;34047;-68
2022/03/20 10:41:32;;;;;;;8.52;5.43;;;;;;;9.92;24.57;102427.91;4516903;31;32935;-69
2022/03/20 10:44:27;;;;;;;8.85;5.32;;;;;;;9.73;24.84;102422.91;4511103;31;34012;-69
2022/03/20 10:47:05;;;;;;;9.73;6.30;;;;;;;8.88;26.19;102440.66;4516760;31;34319;-69
2022/03/20 10:49:32;;;;;;;8.85;5.62;;;;;;;8.75;26.51;102426.81;4513237;31;34656;-68
2022/03/20 10:52:07;;;;;;;8.95;5.85;;;;;;;9.23;25.38;102425.84;4512297;31;34327;-69
2022/03/20 10:54:42;;;;;;;9.25;5.47;;;;;;;9.70;24.98;102426.84;4512903;31;34705;-69
2022/03/20 10:57:12;;;;;;;7.75;4.85;;;;;;;9.58;24.74;102423.66;4515494;31;33507;-68
2022/03/20 10:59:41;;;;;;;10.30;5.57;;;;;;;9.87;24.45;102422.19;4516815;31;33501;-68
2022/03/20 11:02:22;;;;;;;7.87;5.40;;;;;;;9.87;24.75;102414.03;4507727;31;34379;-69
2022/03/20 11:04:51;;;;;;;8.77;5.45;;;;;;;10.46;24.66;102405.34;4511722;31;35042;-70
2022/03/20 11:07:19;;;;;;;9.90;5.72;;;;;;;11.28;23.65;102399.06;4514665;31;34460;-69
2022/03/20 11:09:50;;;;;;;8.20;5.37;;;;;;;11.48;22.69;102402.84;4506394;31;33868;-68
2022/03/20 11:12:27;;;;;;;9.10;5.53;;;;;;;10.82;21.84;102401.91;4508206;31;34166;-68
2022/03/20 11:14:58;;;;;;;10.38;6.10;;;;;;;10.20;23.27;102392.13;4516525;31;33935;-69
2022/03/20 11:17:30;;;;;;;11.85;5.70;;;;;;;10.34;23.85;102383.19;4502741;31;33096;-69
2022/03/20 11:19:58;;;;;;;9.40;5.50;;;;;;;10.54;23.42;102396.25;4515505;31;34825;-69
2022/03/20 11:22:25;;;;;;;7.55;5.10;;;;;;;10.78;22.54;102379.75;4506140;31;34307;-69
2022/03/20 11:24:55;;;;;;;9.30;5.62;;;;;;;11.16;23.08;102390.50;4516198;31;34278;-71
2022/03/20 11:27:28;;;;;;;9.38;5.75;;;;;;;10.32;23.43;102379.81;4502170;31;33438;-70
2022/03/20 11:30:02;;;;;;;10.05;5.50;;;;;;;9.69;24.38;102373.63;4516365;31;34180;-69
2022/03/20 11:32:30;;;;;;;9.05;5.55;;;;;;;8.81;25.96;102363.81;4514196;31;34036;-68
2022/03/20 11:34:57;;;;;;;9.57;5.53;;;;;;;9.59;25.19;102365.75;4516839;31;33857;-71
2022/03/20 11:37:50;;;;;;;7.70;5.20;;;;;;;10.04;25.21;102364.09;4508306;31;33381;-71
2022/03/20 11:40:21;;;;;;;9.63;5.37;;;;;;;10.48;23.97;102357.12;4516496;31;34032;-69
2022/03/20 11:42:50;;;;;;;8.07;5.07;;;;;;;10.51;23.21;102350.50;4516318;31;34991;-70
2022/03/20 11:45:20;;;;;;;8.43;5.43;;;;;;;10.07;23.12;102347.44;4503278;31;34612;-67
2022/03/20 11:47:50;;;;;;;9.00;5.22;;;;;;;10.95;24.10;102347.81;4515601;31;34187;-69
2022/03/20 11:50:25;;;;;;;7.90;5.15;;;;;;;10.71;22.68;102346.19;4506691;31;34611;-68
2022/03/20 11:52:58;;;;;;;8.20;4.78;;;;;;;11.15;21.77;102339.94;4511409;31;33741;-70
2022/03/20 11:55:35;;;;;;;9.90;5.90;;;;;;;10.76;22.50;102334.81;4503468;31;34036;-70
2022/03/20 11:58:05;;;;;;;9.10;5.57;;;;;;;9.49;23.71;102326.31;4509391;31;33432;-71
2022/03/20 12:00:35;;;;;;;10.85;5.90;;;;;;;9.51;24.28;102321.56;4510556;31;34346;-70
2022/03/20 12:03:12;;;;;;;9.55;4.90;;;;;;;9.44;24.47;102324.16;4514798;31;34231;-70
2022/03/20 12:06:08;;;;;;;8.05;4.90;;;;;;;9.48;23.41;102324.63;4512447;31;33634;-71
2022/03/20 12:09:00;;;;;;;7.12;4.60;;;;;;;9.86;23.16;102320.97;4513454;31;33186;-72